createdAt,value
2022-09-21T00:01:41.319Z,49.50
2022-09-21T00:04:09.399Z,46.27
2022-09-21T00:06:39.353Z,47.33
2022-09-21T00:09:09.198Z,47.89
2022-09-21T00:11:39.437Z,48.74
2022-09-21T00:14:13.463Z,48.06
2022-09-21T00:16:44.517Z,47.72
2022-09-21T00:19:13.619Z,48.72
2022-09-21T00:21:42.325Z,48.37
2022-09-21T00:24:10.931Z,48.72
2022-09-21T00:26:39.525Z,48.00
2022-09-21T00:29:08.325Z,49.91
2022-09-21T00:31:36.435Z,49.91
2022-09-21T00:34:08.983Z,49.50
2022-09-21T00:36:37.859Z,50.93
2022-09-21T00:39:06.694Z,49.49
2022-09-21T00:41:36.210Z,51.30
2022-09-21T00:44:29.121Z,53.91
2022-09-21T00:47:02.494Z,52.13
2022-09-21T00:49:31.930Z,52.50
2022-09-21T00:52:03.483Z,53.26
2022-09-21T00:54:39.841Z,53.00
2022-09-21T00:57:09.368Z,56.00
2022-09-21T00:59:40.064Z,55.40
2022-09-21T01:02:09.552Z,54.27
2022-09-21T01:04:39.440Z,56.09
2022-09-21T01:07:13.580Z,57.89
2022-09-21T01:09:44.335Z,60.33
2022-09-21T01:12:30.982Z,59.90
2022-09-21T01:15:24.884Z,57.77
2022-09-21T01:18:17.347Z,62.08
2022-09-21T01:20:48.305Z,62.36
2022-09-21T01:23:41.413Z,58.71
2022-09-21T01:26:35.143Z,62.66
2022-09-21T01:29:22.085Z,63.10
2022-09-21T01:32:10.506Z,63.82
2022-09-21T01:35:01.122Z,65.08
2022-09-21T01:37:56.605Z,67.21
2022-09-21T01:40:35.629Z,67.57
2022-09-21T01:43:07.510Z,67.50
2022-09-21T01:45:42.095Z,67.67
2022-09-21T01:48:11.455Z,68.80
2022-09-21T01:50:45.292Z,70.03
2022-09-21T01:53:17.885Z,70.85
2022-09-21T01:55:58.127Z,70.87
2022-09-21T01:58:37.549Z,71.53
2022-09-21T02:01:09.143Z,71.89
2022-09-21T02:03:48.310Z,73.17
2022-09-21T02:06:18.518Z,73.29
2022-09-21T02:08:47.962Z,73.23
2022-09-21T02:11:16.312Z,72.17
2022-09-21T02:13:49.783Z,71.95
2022-09-21T02:16:44.032Z,72.62
2022-09-21T02:19:39.705Z,74.26
2022-09-21T02:22:14.019Z,75.35
2022-09-21T02:24:44.716Z,75.71
2022-09-21T02:27:16.328Z,75.66
2022-09-21T02:30:10.997Z,74.98
2022-09-21T02:32:57.836Z,76.24
2022-09-21T02:35:32.659Z,77.62
2022-09-21T02:38:01.558Z,79.31
2022-09-21T02:40:55.410Z,79.62
2022-09-21T02:43:23.470Z,78.53
2022-09-21T02:46:23.005Z,78.48
2022-09-21T02:48:59.098Z,80.04
2022-09-21T02:51:38.010Z,81.00
2022-09-21T02:54:10.355Z,82.21
2022-09-21T02:56:40.480Z,82.86
2022-09-21T02:59:09.520Z,82.95
2022-09-21T03:01:40.685Z,83.78
2022-09-21T03:04:09.047Z,83.11
2022-09-21T03:06:38.039Z,83.91
2022-09-21T03:09:06.367Z,83.86
2022-09-21T03:11:35.359Z,84.95
2022-09-21T03:14:09.690Z,85.42
2022-09-21T03:16:39.439Z,85.76
2022-09-21T03:19:08.314Z,85.15
2022-09-21T03:21:39.220Z,85.22
2022-09-21T03:24:10.871Z,85.04
2022-09-21T03:26:39.194Z,86.10
2022-09-21T03:29:07.731Z,85.80
2022-09-21T03:31:36.467Z,85.75
2022-09-21T03:34:05.017Z,86.02
2022-09-21T03:36:33.524Z,86.30
2022-09-21T03:39:02.006Z,87.15
2022-09-21T03:41:30.551Z,86.82
2022-09-21T03:43:59.099Z,86.70
2022-09-21T03:46:27.652Z,86.83
2022-09-21T03:48:56.375Z,86.89
2022-09-21T03:51:24.533Z,87.29
2022-09-21T03:53:52.440Z,86.07
2022-09-21T03:56:20.436Z,86.54
2022-09-21T03:58:48.603Z,86.15
2022-09-21T04:01:17.267Z,86.83
2022-09-21T04:03:49.106Z,85.67
2022-09-21T04:06:17.645Z,84.96
2022-09-21T04:08:46.010Z,84.10
2022-09-21T04:11:19.764Z,83.08
2022-09-21T04:13:54.565Z,82.46
2022-09-21T04:16:23.226Z,82.20
2022-09-21T04:18:52.217Z,82.20
2022-09-21T04:21:21.047Z,81.43
2022-09-21T04:23:51.086Z,81.73
2022-09-21T04:26:31.425Z,82.02
2022-09-21T04:29:00.858Z,81.58
2022-09-21T04:31:30.669Z,82.16
2022-09-21T04:34:00.202Z,81.75
2022-09-21T04:36:34.352Z,81.69
2022-09-21T04:39:06.390Z,80.34
2022-09-21T04:41:34.882Z,80.57
2022-09-21T04:44:03.770Z,80.46
2022-09-21T04:46:32.380Z,80.62
2022-09-21T04:49:01.109Z,80.73
2022-09-21T04:51:29.629Z,80.82
2022-09-21T04:53:58.134Z,81.49
2022-09-21T04:56:26.711Z,80.88
2022-09-21T04:58:55.338Z,80.77
2022-09-21T05:01:24.037Z,80.84
2022-09-21T05:03:52.781Z,80.28
2022-09-21T05:06:21.410Z,81.25
2022-09-21T05:09:08.571Z,80.85
2022-09-21T05:11:37.124Z,82.20
2022-09-21T05:14:06.242Z,82.62
2022-09-21T05:16:35.146Z,82.34
2022-09-21T05:19:03.914Z,82.31
2022-09-21T05:21:35.754Z,81.86
2022-09-21T05:24:04.532Z,81.74
2022-09-21T05:26:33.168Z,83.16
2022-09-21T05:29:01.793Z,83.04
2022-09-21T05:32:18.292Z,83.62
2022-09-21T05:35:03.899Z,83.73
2022-09-21T05:37:39.055Z,84.26
2022-09-21T05:40:08.383Z,83.28
2022-09-21T05:42:37.240Z,82.97
2022-09-21T05:45:06.463Z,82.83
2022-09-21T05:47:42.208Z,81.63
2022-09-21T05:50:30.919Z,79.76
2022-09-21T05:53:26.680Z,79.22
2022-09-21T05:56:02.045Z,78.57
2022-09-21T05:58:51.862Z,78.94
2022-09-21T06:01:58.089Z,78.96
2022-09-21T06:04:26.475Z,78.81
2022-09-21T06:06:54.652Z,78.68
2022-09-21T06:09:23.061Z,78.54
2022-09-21T06:11:51.414Z,78.23
2022-09-21T06:14:25.905Z,78.07
2022-09-21T06:16:54.498Z,78.10
2022-09-21T06:19:23.163Z,77.66
2022-09-21T06:21:51.736Z,77.59
2022-09-21T06:24:20.418Z,77.98
2022-09-21T06:26:48.739Z,77.60
2022-09-21T06:29:17.313Z,77.90
2022-09-21T06:31:46.140Z,78.73
2022-09-21T06:34:14.753Z,78.11
2022-09-21T06:36:43.258Z,78.51
2022-09-21T06:39:11.890Z,78.83
2022-09-21T06:41:40.430Z,79.10
2022-09-21T06:44:09.054Z,79.36
2022-09-21T06:46:37.926Z,80.42
2022-09-21T06:49:06.694Z,80.48
2022-09-21T06:51:35.229Z,80.31
2022-09-21T06:54:04.030Z,80.25
2022-09-21T06:56:32.629Z,80.42
2022-09-21T06:59:01.214Z,81.48
2022-09-21T07:01:29.631Z,81.27
2022-09-21T07:03:58.300Z,80.86
2022-09-21T07:06:26.883Z,82.01
2022-09-21T07:11:44.437Z,82.13
2022-09-21T07:14:16.530Z,81.62
2022-09-21T07:16:45.229Z,81.70
2022-09-21T07:19:14.047Z,82.12
2022-09-21T07:21:42.811Z,82.27
2022-09-21T07:24:12.613Z,82.54
2022-09-21T07:26:41.840Z,82.82
2022-09-21T07:29:10.456Z,83.02
2022-09-21T07:31:39.734Z,82.81
2022-09-21T07:34:08.444Z,82.41
2022-09-21T07:36:37.298Z,81.28
2022-09-21T07:39:06.262Z,81.19
2022-09-21T07:41:34.928Z,80.71
2022-09-21T07:44:04.587Z,80.95
2022-09-21T07:46:33.211Z,81.62
2022-09-21T07:49:01.610Z,81.08
2022-09-21T07:51:29.916Z,80.36
2022-09-21T07:53:58.583Z,81.25
2022-09-21T07:56:27.611Z,80.08
2022-09-21T07:59:07.939Z,79.64
2022-09-21T08:01:41.939Z,78.87
2022-09-21T08:04:11.663Z,79.26
2022-09-21T08:06:43.000Z,79.68
2022-09-21T08:09:11.322Z,80.96
2022-09-21T08:11:40.767Z,79.23
2022-09-21T08:14:09.366Z,79.54
2022-09-21T08:16:40.151Z,78.87
2022-09-21T08:19:08.739Z,78.75
2022-09-21T08:21:37.241Z,78.17
2022-09-21T08:24:06.047Z,78.31
2022-09-21T08:26:34.914Z,78.22
2022-09-21T08:29:04.005Z,78.17
2022-09-21T08:31:32.767Z,78.38
2022-09-21T08:34:02.300Z,78.15
2022-09-21T08:36:30.837Z,77.82
2022-09-21T08:38:58.942Z,77.11
2022-09-21T08:41:27.591Z,77.36
2022-09-21T08:44:10.618Z,77.18
2022-09-21T08:46:40.375Z,77.47
2022-09-21T08:49:18.581Z,77.47
2022-09-21T08:52:12.762Z,77.49
2022-09-21T08:55:01.468Z,77.44
2022-09-21T08:57:35.175Z,77.59
2022-09-21T09:00:09.399Z,77.77
2022-09-21T09:02:37.887Z,77.40
2022-09-21T09:05:27.164Z,77.70
2022-09-21T09:08:32.088Z,77.73
2022-09-21T09:11:12.438Z,77.57
2022-09-21T09:14:14.133Z,78.37
2022-09-21T09:16:42.939Z,77.88
2022-09-21T09:19:11.408Z,77.80
2022-09-21T09:21:45.119Z,78.31
2022-09-21T09:24:23.125Z,78.22
2022-09-21T09:27:02.252Z,77.45
2022-09-21T09:29:39.611Z,77.16
2022-09-21T09:32:15.629Z,76.79
2022-09-21T09:34:55.327Z,77.71
2022-09-21T09:37:32.666Z,77.95
2022-09-21T09:40:02.674Z,78.09
2022-09-21T09:43:13.878Z,77.70
2022-09-21T09:45:52.431Z,77.79
2022-09-21T09:48:34.330Z,78.10
2022-09-21T09:51:03.082Z,78.18
2022-09-21T09:53:32.914Z,78.09
2022-09-21T09:56:02.734Z,78.42
2022-09-21T09:58:54.805Z,78.29
2022-09-21T10:01:43.504Z,78.71
2022-09-21T10:04:17.318Z,78.58
2022-09-21T10:06:47.173Z,78.90
2022-09-21T10:09:24.759Z,78.89
2022-09-21T10:11:54.579Z,78.93
2022-09-21T10:14:26.171Z,78.97
2022-09-21T10:16:57.626Z,79.08
2022-09-21T10:19:28.841Z,79.50
2022-09-21T10:22:03.540Z,79.20
2022-09-21T10:24:34.816Z,79.35
2022-09-21T10:27:13.724Z,79.93
2022-09-21T10:29:43.658Z,79.53
2022-09-21T10:32:15.216Z,79.86
2022-09-21T10:35:06.650Z,80.13
2022-09-21T10:37:43.989Z,79.75
2022-09-21T10:40:21.849Z,80.29
2022-09-21T10:43:00.305Z,79.71
2022-09-21T10:45:40.092Z,79.76
2022-09-21T10:48:17.912Z,79.75
2022-09-21T10:50:48.337Z,80.30
2022-09-21T10:53:38.580Z,80.49
2022-09-21T10:56:22.516Z,81.79
2022-09-21T10:59:28.405Z,82.46
2022-09-21T11:01:58.815Z,82.37
2022-09-21T11:04:50.634Z,82.39
2022-09-21T11:07:35.619Z,83.01
2022-09-21T11:10:13.761Z,82.49
2022-09-21T11:13:06.877Z,83.57
2022-09-21T11:15:35.680Z,83.31
2022-09-21T11:18:07.707Z,83.62
2022-09-21T11:20:48.858Z,83.65
2022-09-21T11:23:55.372Z,84.01
2022-09-21T11:29:38.657Z,84.30
2022-09-21T11:32:38.451Z,84.34
2022-09-21T11:35:48.533Z,83.98
2022-09-21T11:38:34.693Z,83.73
2022-09-21T11:41:50.993Z,83.44
2022-09-21T11:44:57.213Z,83.33
2022-09-21T11:47:43.959Z,84.07
2022-09-21T11:50:35.383Z,84.03
2022-09-21T11:53:12.609Z,83.95
2022-09-21T11:56:05.596Z,84.07
2022-09-21T11:59:00.382Z,84.75
2022-09-21T12:01:38.407Z,84.40
2022-09-21T12:04:43.246Z,84.78
2022-09-21T12:07:37.020Z,84.88
2022-09-21T12:10:16.604Z,85.04
2022-09-21T12:13:08.790Z,85.22
2022-09-21T12:15:56.152Z,85.13
2022-09-21T12:18:32.934Z,85.31
2022-09-21T12:21:14.598Z,85.85
2022-09-21T12:23:52.251Z,85.45
2022-09-21T12:26:26.662Z,85.89
2022-09-21T12:29:03.949Z,85.71
2022-09-21T12:31:41.348Z,85.81
2022-09-21T12:34:17.656Z,85.47
2022-09-21T12:37:04.893Z,85.59
2022-09-21T12:40:29.223Z,85.61
2022-09-21T12:43:02.686Z,85.64
2022-09-21T12:45:37.042Z,86.04
2022-09-21T12:48:20.710Z,86.05
2022-09-21T12:51:18.487Z,86.18
2022-09-21T12:53:51.148Z,85.88
2022-09-21T12:56:41.741Z,86.39
2022-09-21T12:59:20.498Z,85.76
2022-09-21T13:02:14.156Z,86.07
2022-09-21T13:05:20.949Z,86.16
2022-09-21T13:08:13.658Z,86.10
2022-09-21T13:11:00.304Z,86.22
2022-09-21T13:13:34.362Z,86.29
2022-09-21T13:16:05.454Z,86.16
2022-09-21T13:18:42.066Z,86.02
2022-09-21T13:21:31.259Z,85.92
2022-09-21T13:24:02.946Z,85.91
2022-09-21T13:26:37.182Z,86.17
2022-09-21T13:29:23.425Z,86.05
2022-09-21T13:32:02.892Z,86.07
2022-09-21T13:34:38.619Z,85.80
2022-09-21T13:37:28.866Z,85.59
2022-09-21T13:39:56.830Z,85.42
2022-09-21T13:42:49.257Z,85.12
2022-09-21T13:45:20.440Z,84.56
2022-09-21T13:47:52.470Z,84.77
2022-09-21T13:50:26.776Z,84.48
2022-09-21T13:53:03.314Z,84.22
2022-09-21T13:55:50.540Z,83.91
2022-09-21T13:58:53.462Z,84.26
2022-09-21T14:01:45.845Z,83.81
2022-09-21T14:04:30.111Z,83.49
2022-09-21T14:06:59.018Z,83.37
2022-09-21T14:09:55.515Z,83.42
2022-09-21T14:12:28.215Z,82.65
2022-09-21T14:15:19.366Z,82.47
2022-09-21T14:18:17.060Z,82.06
2022-09-21T14:21:11.208Z,81.95
2022-09-21T14:23:41.148Z,81.54
2022-09-21T14:26:34.391Z,81.70
2022-09-21T14:29:26.667Z,81.10
2022-09-21T14:31:59.860Z,81.00
2022-09-21T14:34:38.192Z,81.27
2022-09-21T14:37:25.702Z,80.90
2022-09-21T14:39:56.146Z,81.02
2022-09-21T14:42:30.446Z,80.97
2022-09-21T14:45:04.094Z,80.83
2022-09-21T14:47:48.762Z,79.93
2022-09-21T14:50:37.476Z,79.76
2022-09-21T14:53:29.384Z,80.10
2022-09-21T14:56:03.868Z,79.03
2022-09-21T14:58:58.427Z,78.88
2022-09-21T15:01:37.308Z,78.54
2022-09-21T15:04:32.494Z,78.12
2022-09-21T15:07:46.106Z,77.83
2022-09-21T15:10:42.695Z,78.56
2022-09-21T15:13:30.071Z,77.45
2022-09-21T15:16:23.558Z,77.09
2022-09-21T15:19:01.391Z,76.51
2022-09-21T15:21:33.387Z,76.25
2022-09-21T15:24:19.354Z,75.38
2022-09-21T15:26:49.702Z,74.87
2022-09-21T15:29:30.642Z,75.07
2022-09-21T15:32:00.433Z,74.40
2022-09-21T15:34:29.941Z,74.21
2022-09-21T15:37:09.773Z,73.74
2022-09-21T15:39:38.434Z,73.56
2022-09-21T15:42:20.630Z,73.33
2022-09-21T15:44:51.838Z,72.88
2022-09-21T15:47:23.795Z,72.49
2022-09-21T15:49:57.688Z,72.42
2022-09-21T15:52:33.651Z,71.90
2022-09-21T15:55:10.583Z,70.31
2022-09-21T15:57:41.882Z,70.65
2022-09-21T16:00:23.438Z,70.08
2022-09-21T16:02:58.436Z,70.17
2022-09-21T16:05:27.203Z,69.53
2022-09-21T16:08:19.310Z,69.93
2022-09-21T16:10:48.070Z,69.12
2022-09-21T16:13:43.089Z,68.55
2022-09-21T16:16:14.657Z,68.47
2022-09-21T16:18:54.962Z,68.63
2022-09-21T16:21:28.950Z,66.75
2022-09-21T16:23:59.439Z,66.91
2022-09-21T16:26:33.757Z,66.60
2022-09-21T16:29:21.603Z,66.15
2022-09-21T16:31:50.762Z,65.25
2022-09-21T16:34:38.620Z,66.12
2022-09-21T16:37:39.217Z,65.40
2022-09-21T16:40:08.339Z,64.82
2022-09-21T16:42:36.889Z,64.69
2022-09-21T16:45:25.620Z,62.99
2022-09-21T16:47:55.277Z,60.95
2022-09-21T16:50:25.558Z,60.50
2022-09-21T16:52:54.198Z,59.30
2022-09-21T16:55:28.251Z,56.78
2022-09-21T16:57:58.656Z,55.81
2022-09-21T17:00:32.015Z,55.62
2022-09-21T17:03:02.408Z,54.10
2022-09-21T17:05:30.903Z,52.70
2022-09-21T17:08:00.982Z,52.36
2022-09-21T17:10:35.318Z,50.87
2022-09-21T17:13:07.024Z,52.09
2022-09-21T17:15:37.625Z,50.67
2022-09-21T17:18:07.672Z,51.19
2022-09-21T17:20:45.961Z,51.18
2022-09-21T17:23:15.262Z,48.06
2022-09-21T17:25:44.344Z,50.71
2022-09-21T17:28:19.194Z,48.70
2022-09-21T17:30:47.897Z,47.43
2022-09-21T17:33:19.227Z,47.96
2022-09-21T17:35:49.042Z,48.13
2022-09-21T17:38:17.666Z,46.60
2022-09-21T17:40:46.827Z,45.63
2022-09-21T17:43:15.527Z,45.79
2022-09-21T17:45:52.612Z,45.66
2022-09-21T17:48:23.053Z,45.40
2022-09-21T17:50:52.483Z,46.07
2022-09-21T17:53:38.238Z,42.48
2022-09-21T17:56:34.409Z,42.59
2022-09-21T17:59:07.016Z,43.29
2022-09-21T18:01:43.324Z,43.33
2022-09-21T18:04:12.856Z,44.06
2022-09-21T18:06:41.396Z,44.13
2022-09-21T18:09:14.301Z,44.23
2022-09-21T18:11:57.595Z,43.28
2022-09-21T18:14:41.563Z,43.46
2022-09-21T18:17:35.497Z,42.04
2022-09-21T18:20:21.675Z,44.31
2022-09-21T18:22:59.576Z,42.90
2022-09-21T18:25:48.825Z,44.19
2022-09-21T18:28:25.406Z,42.75
2022-09-21T18:31:33.731Z,41.43
2022-09-21T18:34:20.313Z,41.54
2022-09-21T18:36:53.486Z,40.39
2022-09-21T18:39:27.410Z,41.15
2022-09-21T18:42:30.807Z,40.16
2022-09-21T18:45:18.357Z,37.58
2022-09-21T18:47:46.734Z,37.77
2022-09-21T18:50:25.848Z,39.37
2022-09-21T18:53:09.594Z,36.80
2022-09-21T18:55:38.454Z,37.47
2022-09-21T18:58:07.218Z,37.69
2022-09-21T19:00:37.089Z,39.15
2022-09-21T19:03:18.624Z,36.95
2022-09-21T19:06:00.700Z,37.42
2022-09-21T19:09:04.765Z,36.74
2022-09-21T19:11:36.215Z,35.80
2022-09-21T19:14:23.416Z,36.67
2022-09-21T19:17:02.491Z,34.67
2022-09-21T19:19:53.394Z,35.80
2022-09-21T19:22:56.758Z,36.37
2022-09-21T19:25:48.691Z,36.19
2022-09-21T19:28:51.644Z,36.42
2022-09-21T19:31:20.828Z,36.11
2022-09-21T19:33:51.125Z,34.93
2022-09-21T19:36:21.843Z,35.98
2022-09-21T19:38:50.560Z,34.56
2022-09-21T19:41:30.868Z,33.41
2022-09-21T19:44:24.130Z,33.63
2022-09-21T19:47:07.897Z,33.66
2022-09-21T19:49:50.806Z,33.37
2022-09-21T19:52:21.377Z,33.79
2022-09-21T19:55:08.317Z,33.23
2022-09-21T19:57:55.470Z,33.31
2022-09-21T20:00:25.316Z,32.75
2022-09-21T20:03:10.276Z,32.67
2022-09-21T20:06:05.753Z,32.21
2022-09-21T20:08:43.894Z,32.63
2022-09-21T20:11:31.528Z,32.50
2022-09-21T20:14:09.110Z,32.33
2022-09-21T20:17:01.954Z,31.68
2022-09-21T20:19:40.370Z,31.65
2022-09-21T20:22:36.311Z,31.06
2022-09-21T20:25:11.355Z,32.04
2022-09-21T20:27:45.573Z,31.13
2022-09-21T20:30:16.370Z,31.37
2022-09-21T20:32:48.084Z,31.71
2022-09-21T20:35:19.294Z,31.90
2022-09-21T20:37:47.892Z,30.93
2022-09-21T20:40:17.211Z,31.97
2022-09-21T20:42:45.980Z,30.52
2022-09-21T20:45:15.558Z,29.97
2022-09-21T20:47:44.563Z,30.11
2022-09-21T20:50:14.769Z,30.28
2022-09-21T20:52:44.186Z,30.38
2022-09-21T20:55:18.520Z,29.54
2022-09-21T20:57:47.069Z,29.93
2022-09-21T21:00:18.210Z,29.49
2022-09-21T21:02:46.785Z,29.24
2022-09-21T21:05:15.353Z,28.91
2022-09-21T21:07:44.696Z,30.02
2022-09-21T21:10:15.143Z,29.47
2022-09-21T21:12:44.415Z,29.74
2022-09-21T21:15:13.902Z,28.88
2022-09-21T21:17:43.619Z,29.02
2022-09-21T21:20:12.605Z,29.99
2022-09-21T21:22:41.275Z,30.54
2022-09-21T21:25:10.277Z,28.79
2022-09-21T21:27:39.270Z,28.26
2022-09-21T21:30:09.783Z,28.78
2022-09-21T21:32:38.391Z,28.89
2022-09-21T21:35:08.124Z,27.27
2022-09-21T21:37:37.383Z,27.83
2022-09-21T21:40:06.368Z,27.54
2022-09-21T21:42:35.876Z,27.69
2022-09-21T21:45:05.715Z,27.10
2022-09-21T21:47:39.877Z,27.40
2022-09-21T21:50:10.557Z,27.48
2022-09-21T21:52:39.774Z,27.58
2022-09-21T21:55:09.076Z,26.85
2022-09-21T21:57:37.867Z,28.09
2022-09-21T22:00:07.951Z,26.78
2022-09-21T22:02:36.695Z,25.88
2022-09-21T22:05:05.538Z,25.87
2022-09-21T22:07:34.436Z,25.87
2022-09-21T22:10:03.007Z,26.73
2022-09-21T22:12:32.747Z,27.15
2022-09-21T22:15:01.484Z,27.42
2022-09-21T22:17:30.437Z,28.20
2022-09-21T22:19:59.192Z,27.50
2022-09-21T22:22:27.358Z,27.08
2022-09-21T22:24:56.008Z,27.20
2022-09-21T22:27:24.595Z,27.32
2022-09-21T22:29:53.324Z,27.75
2022-09-21T22:32:22.099Z,28.35
2022-09-21T22:34:52.374Z,27.92
2022-09-21T22:37:20.973Z,28.09
2022-09-21T22:39:49.358Z,28.70
2022-09-21T22:42:18.861Z,28.82
2022-09-21T22:44:47.641Z,28.11
2022-09-21T22:47:16.162Z,27.98
2022-09-21T22:49:44.532Z,28.15
2022-09-21T22:52:13.094Z,28.68
2022-09-21T22:54:41.658Z,28.54
2022-09-21T22:57:10.283Z,28.70
2022-09-21T22:59:38.903Z,27.70
2022-09-21T23:02:10.822Z,28.30
2022-09-21T23:04:39.669Z,28.41
2022-09-21T23:07:07.988Z,28.45
2022-09-21T23:09:36.599Z,28.30
2022-09-21T23:12:05.311Z,28.85
2022-09-21T23:14:34.139Z,29.28
2022-09-21T23:17:02.921Z,28.70
2022-09-21T23:19:31.713Z,28.69
2022-09-21T23:22:00.348Z,28.89
2022-09-21T23:24:29.743Z,28.67
2022-09-21T23:26:58.136Z,28.77
2022-09-21T23:29:26.703Z,29.33
2022-09-21T23:31:55.296Z,28.93
2022-09-21T23:34:24.011Z,29.20
2022-09-21T23:36:52.610Z,28.75
2022-09-21T23:39:21.088Z,29.42
2022-09-21T23:41:49.774Z,29.42
2022-09-21T23:44:17.720Z,28.68
2022-09-21T23:46:46.556Z,29.17
2022-09-21T23:49:15.216Z,29.97
2022-09-21T23:51:43.751Z,30.10
2022-09-21T23:54:12.546Z,30.03
2022-09-21T23:56:41.073Z,30.12
2022-09-21T23:59:10.166Z,30.30
